Harrah, Washington
Current Conditions -  °F | °C
As of 4:53 AM on Sunday 21 Dec 2014 (Local Time) from KYKM Reporting Station
Broken Clouds Broken Clouds  
Wind Chill: 54°   Ceiling: 11000
Heat Index: 54°   Visibility: 10mi
Dew Point: 39°   Wind: 23mph
Humidity: 57%   Direction: 260°W
Pressure: 29.7"   Gusts: 32mph
Location:  46.4°N, 120.54°W
Report Text: KYKM 211253Z AUTO 26020G28KT 10SM FEW090 BKN110 12/04 A2970 RMK AO2 PK WND 26035/1240 RAE19 SLP061 P0000 T01220039
Loading
Personal Weather Stations






























Interactive Weather Map New forecast layout! Learn more

10-Day Weather Forecast

Advertisements
Track Severe Weather on mobile